Strona główna
METAR-TAF:

METAR-TAF

Lotnisko :

Port lotniczy Uberaba

Uberaba, Minas Gerais, Brazylia

Szerokość geograficzna: 19-47S, Długość geograficzna: 047-58W, wysokość: 807 m

Aktualna obserwacja pogody

Raport powstał 2 godziny i 18 minut temu, godzina 17:00 UTC
Wiatr 6 kt od północno-północny wschód
Temperatura 22°C
Wilgotność 38%
Ciśnienie 1020 hPa
Widzialność 10 km lub więcej
Brak chmur poniżej 1500 m i brak chmur cumulonimbus

METAR: SBUR 301700Z 02006KT CAVOK 22/07 Q1020

czas: 16:18 (19:18 UTC)

Prognoza

Raport powstał 2 godziny i 57 minut temu, godzina 16:21 UTC
Prognoza ważna od 30 godzina 18 UTC do 31 godzina 06 UTC
Wiatr 7 kt od północno-północny wschód
Widzialność 10 km lub więcej
Brak chmur poniżej 1500 m i brak chmur cumulonimbus
Stopniowe zmiany
od 30 godzina 21 UTC do 30 godzina 23 UTC
Wiatr 4 kt od wschodnio-północny wschód

TAF: SBUR 301621Z 3018/3106 02007KT CAVOK TX26/3019Z TN14/3105Z BECMG 3021/3023 06004KT RMK PHM

Obserwacja i prognoza pogody dla ponad 4000 lotnisk (raport METAR i TAF).

Dostępne stacje oznaczono żółtymi i czerwonymi punktami na mapie.

Najedź kursorem aby zobaczyć nazwę stacji.

Kliknij aby zobaczyć obserwacje i prognozy pogody.

Aby zmienić mapę: kliknij na zielony przycisk z czarnym krzyżykiem, aby powiększyć; na zielony przycisk z myślnikiem, aby pomniejszyć; na zielone strzałki, aby przejść do map sąsiednich.


METAR-TAF: